Time;durP1;ratioP1;P1;durP2;ratioP2;P2;SDS_P1;SDS_P2;PMS_P1;PMS_P2;Temp;Humidity;BMP_temperature;BMP_pressure;BME280_temperature;BME280_humidity;BME280_pressure;Samples;Min_cycle;Max_cycle;Signal;HPM_P1;HPM_P2
2022/10/02 00:01:33;;;;;;;9.77;2.40;;;;;;;;;;4992101;28;20541;-65
2022/10/02 00:04:01;;;;;;;5.45;2.20;;;;;;;;;;5007769;28;20057;-67
2022/10/02 00:06:32;;;;;;;4.50;1.92;;;;;;;;;;4988238;28;20038;-67
2022/10/02 00:09:02;;;;;;;6.10;2.67;;;;;;;;;;4990949;28;20822;-68
2022/10/02 00:11:38;;;;;;;4.30;1.95;;;;;;;;;;5004519;28;20149;-66
2022/10/02 00:14:05;;;;;;;7.80;2.05;;;;;;;;;;5006671;28;20041;-66
2022/10/02 00:16:34;;;;;;;4.00;1.90;;;;;;;;;;5005272;28;20082;-67
2022/10/02 00:19:01;;;;;;;6.65;2.55;;;;;;;;;;4990377;28;20069;-68
2022/10/02 00:21:41;;;;;;;6.78;2.35;;;;;;;;;;4988444;28;20038;-68
2022/10/02 00:24:12;;;;;;;7.50;1.95;;;;;;;;;;4989994;28;20045;-67
2022/10/02 00:27:03;;;;;;;5.40;1.93;;;;;;;;;;5004431;28;20036;-67
2022/10/02 00:29:39;;;;;;;5.45;2.10;;;;;;;;;;4974443;28;20041;-67
2022/10/02 00:32:19;;;;;;;6.80;2.25;;;;;;;;;;4975714;28;20050;-68
2022/10/02 00:34:45;;;;;;;4.68;1.90;;;;;;;;;;5004448;28;20041;-68
2022/10/02 00:37:21;;;;;;;8.20;2.40;;;;;;;;;;5005587;28;21774;-67
2022/10/02 00:39:57;;;;;;;7.80;2.35;;;;;;;;;;4986659;28;20061;-68
2022/10/02 00:42:26;;;;;;;10.30;2.47;;;;;;;;;;4991019;28;20042;-70
2022/10/02 00:45:01;;;;;;;6.22;2.10;;;;;;;;;;5006471;28;20441;-68
2022/10/02 00:47:49;;;;;;;11.80;5.05;;;;;;;;;;5006227;28;20127;-68
2022/10/02 00:50:18;;;;;;;10.65;3.28;;;;;;;;;;4987783;28;20071;-68
2022/10/02 00:52:45;;;;;;;11.35;2.78;;;;;;;;;;5008866;28;20100;-69
2022/10/02 00:55:37;;;;;;;11.40;2.85;;;;;;;;;;4985442;28;20084;-67
2022/10/02 00:58:16;;;;;;;8.48;2.65;;;;;;;;;;4984509;28;20803;-67
2022/10/02 01:00:48;;;;;;;5.68;2.38;;;;;;;;;;4986474;28;20098;-67
2022/10/02 01:03:25;;;;;;;7.57;2.47;;;;;;;;;;4974825;28;20038;-66
2022/10/02 01:05:52;;;;;;;7.85;2.60;;;;;;;;;;4984675;28;21096;-67
2022/10/02 01:08:20;;;;;;;7.47;2.40;;;;;;;;;;4987935;28;20077;-67
2022/10/02 01:10:46;;;;;;;10.85;2.72;;;;;;;;;;4985638;28;20487;-68
2022/10/02 01:13:34;;;;;;;6.10;2.20;;;;;;;;;;4967844;28;20049;-65
2022/10/02 01:16:01;;;;;;;6.60;2.58;;;;;;;;;;4969375;28;20534;-67
2022/10/02 01:18:29;;;;;;;5.85;2.70;;;;;;;;;;4951980;28;20054;-65
2022/10/02 01:21:01;;;;;;;5.20;2.40;;;;;;;;;;4971023;28;20034;-66
2022/10/02 01:23:41;;;;;;;8.00;2.28;;;;;;;;;;4970181;28;20121;-66
2022/10/02 01:26:08;;;;;;;9.00;2.40;;;;;;;;;;4975913;28;20038;-69
2022/10/02 01:28:34;;;;;;;4.75;2.33;;;;;;;;;;4985933;28;20046;-66
2022/10/02 01:31:03;;;;;;;7.88;2.70;;;;;;;;;;4984118;28;20042;-65
2022/10/02 01:33:31;;;;;;;6.85;2.50;;;;;;;;;;4982785;28;20427;-66
2022/10/02 01:35:58;;;;;;;8.55;2.63;;;;;;;;;;4985661;28;20046;-65
2022/10/02 01:38:25;;;;;;;6.28;2.85;;;;;;;;;;4986284;28;20065;-64
2022/10/02 01:40:51;;;;;;;8.63;3.03;;;;;;;;;;4988524;28;20034;-65
2022/10/02 01:43:26;;;;;;;9.90;2.50;;;;;;;;;;4985854;28;20196;-64
2022/10/02 01:46:11;;;;;;;7.35;3.15;;;;;;;;;;4986319;28;20042;-65
2022/10/02 01:49:06;;;;;;;12.48;3.40;;;;;;;;;;4986625;28;20053;-63
2022/10/02 01:51:51;;;;;;;7.10;2.97;;;;;;;;;;4943468;28;20047;-65
2022/10/02 01:54:41;;;;;;;10.18;3.25;;;;;;;;;;5011760;28;20164;-66
2022/10/02 01:57:46;;;;;;;8.95;2.95;;;;;;;;;;5010644;28;20073;-66
2022/10/02 02:00:12;;;;;;;7.78;3.50;;;;;;;;;;4921082;29;20387;-66
2022/10/02 02:02:42;;;;;;;7.68;3.90;;;;;;;;;;4920427;29;20051;-64
2022/10/02 02:05:11;;;;;;;9.00;3.67;;;;;;;;;;4964912;28;20041;-65
2022/10/02 02:07:44;;;;;;;12.70;3.58;;;;;;;;;;5008354;28;20065;-67
2022/10/02 02:10:10;;;;;;;11.82;4.03;;;;;;;;;;5007519;28;20033;-66
2022/10/02 02:12:51;;;;;;;11.82;3.40;;;;;;;;;;5008192;28;20111;-67
2022/10/02 02:15:17;;;;;;;9.93;3.47;;;;;;;;;;4992923;28;20042;-66
2022/10/02 02:17:50;;;;;;;9.15;3.42;;;;;;;;;;4994355;28;20091;-66
2022/10/02 02:20:19;;;;;;;8.00;2.85;;;;;;;;;;5011697;28;20813;-66
2022/10/02 02:22:48;;;;;;;8.65;2.70;;;;;;;;;;5009152;28;20880;-66
2022/10/02 02:25:22;;;;;;;9.25;2.80;;;;;;;;;;5008270;28;20052;-67
2022/10/02 02:27:51;;;;;;;8.18;4.18;;;;;;;;;;5007446;28;20505;-67
2022/10/02 02:30:19;;;;;;;10.95;2.97;;;;;;;;;;5006127;28;20073;-66
2022/10/02 02:32:49;;;;;;;12.13;3.10;;;;;;;;;;5008157;28;20044;-66
2022/10/02 02:35:38;;;;;;;7.40;3.00;;;;;;;;;;5005897;28;20038;-65
2022/10/02 02:38:09;;;;;;;9.20;2.63;;;;;;;;;;4996098;28;20112;-66
2022/10/02 02:40:38;;;;;;;8.88;3.13;;;;;;;;;;5006782;28;20033;-65
2022/10/02 02:43:10;;;;;;;8.43;3.10;;;;;;;;;;5008879;28;20042;-65
2022/10/02 02:45:48;;;;;;;13.02;3.53;;;;;;;;;;5007884;28;20041;-66
2022/10/02 02:48:38;;;;;;;5.97;2.60;;;;;;;;;;5008089;28;20419;-66
2022/10/02 02:51:09;;;;;;;8.38;3.17;;;;;;;;;;5006642;28;20580;-66
2022/10/02 02:53:45;;;;;;;8.95;2.92;;;;;;;;;;5006753;28;20041;-66
2022/10/02 02:56:13;;;;;;;11.52;2.95;;;;;;;;;;5005120;28;20062;-65
2022/10/02 02:58:47;;;;;;;9.82;2.58;;;;;;;;;;4993965;28;20042;-65
2022/10/02 03:01:14;;;;;;;6.25;2.80;;;;;;;;;;5009159;28;20041;-65
2022/10/02 03:03:40;;;;;;;9.15;3.10;;;;;;;;;;5008430;28;20100;-66
2022/10/02 03:06:17;;;;;;;7.57;3.00;;;;;;;;;;5010157;28;21826;-64
2022/10/02 03:08:45;;;;;;;13.32;3.00;;;;;;;;;;5011049;28;20886;-65
2022/10/02 03:11:30;;;;;;;12.43;3.38;;;;;;;;;;5010928;28;20105;-65
2022/10/02 03:14:00;;;;;;;12.88;3.08;;;;;;;;;;5013137;28;20046;-65
2022/10/02 03:16:39;;;;;;;13.05;3.60;;;;;;;;;;5012951;28;20095;-66
2022/10/02 03:19:15;;;;;;;11.15;3.50;;;;;;;;;;5011217;28;20052;-64
2022/10/02 03:21:57;;;;;;;10.43;3.40;;;;;;;;;;5008073;28;20759;-66
2022/10/02 03:24:35;;;;;;;14.55;3.72;;;;;;;;;;5009114;28;20043;-67
2022/10/02 03:27:08;;;;;;;7.72;3.45;;;;;;;;;;4993775;28;20033;-65
2022/10/02 03:29:43;;;;;;;10.55;3.42;;;;;;;;;;5007031;28;20084;-65
2022/10/02 03:32:11;;;;;;;14.13;3.33;;;;;;;;;;4989364;28;20053;-65
2022/10/02 03:34:37;;;;;;;10.02;3.72;;;;;;;;;;5007016;28;20073;-65
2022/10/02 03:37:04;;;;;;;7.57;3.40;;;;;;;;;;5008392;28;20045;-66
2022/10/02 03:39:31;;;;;;;7.43;2.95;;;;;;;;;;5006790;28;20042;-68
2022/10/02 03:41:58;;;;;;;8.02;2.85;;;;;;;;;;5007815;28;20508;-66
2022/10/02 03:44:24;;;;;;;14.73;2.80;;;;;;;;;;5006977;28;20040;-65
2022/10/02 03:46:51;;;;;;;6.35;2.90;;;;;;;;;;4978656;28;20068;-66
2022/10/02 03:49:18;;;;;;;10.65;2.83;;;;;;;;;;5007857;28;20061;-64
2022/10/02 03:51:44;;;;;;;10.82;3.10;;;;;;;;;;5006656;28;20537;-66
2022/10/02 03:54:18;;;;;;;7.25;3.50;;;;;;;;;;5008384;28;20048;-66
2022/10/02 03:56:51;;;;;;;9.00;3.28;;;;;;;;;;5006262;28;20072;-67
2022/10/02 03:59:23;;;;;;;16.33;3.22;;;;;;;;;;5005006;28;20034;-66
2022/10/02 04:01:51;;;;;;;13.57;3.38;;;;;;;;;;5005704;28;20045;-64
2022/10/02 04:04:23;;;;;;;9.15;3.05;;;;;;;;;;5006652;28;20037;-66
2022/10/02 04:06:56;;;;;;;6.38;2.60;;;;;;;;;;5005557;28;21707;-65
2022/10/02 04:09:25;;;;;;;11.20;3.35;;;;;;;;;;5005201;28;20168;-66
2022/10/02 04:11:59;;;;;;;9.63;3.05;;;;;;;;;;5005564;28;20466;-65
2022/10/02 04:14:32;;;;;;;18.33;3.58;;;;;;;;;;5006427;28;20144;-64
2022/10/02 04:17:04;;;;;;;13.48;3.40;;;;;;;;;;5005885;28;20046;-65
2022/10/02 04:19:34;;;;;;;9.10;3.28;;;;;;;;;;5005776;28;20092;-66
2022/10/02 04:22:21;;;;;;;8.23;3.03;;;;;;;;;;5006584;28;20106;-66
2022/10/02 04:24:51;;;;;;;12.88;3.55;;;;;;;;;;4987077;28;20041;-65
2022/10/02 04:27:17;;;;;;;13.35;3.60;;;;;;;;;;5002964;28;20496;-66
2022/10/02 04:29:55;;;;;;;9.63;3.67;;;;;;;;;;5005914;28;20379;-64
2022/10/02 04:32:30;;;;;;;13.63;3.67;;;;;;;;;;5005129;28;20041;-65
2022/10/02 04:34:57;;;;;;;14.88;3.83;;;;;;;;;;5005869;28;20371;-65
2022/10/02 04:37:42;;;;;;;10.07;3.63;;;;;;;;;;5004928;28;20149;-66
2022/10/02 04:40:12;;;;;;;14.68;3.78;;;;;;;;;;4988407;28;20034;-64
2022/10/02 04:42:46;;;;;;;10.07;4.05;;;;;;;;;;4988035;28;20490;-65
2022/10/02 04:45:34;;;;;;;10.18;4.22;;;;;;;;;;5005808;28;20056;-65
2022/10/02 04:48:17;;;;;;;9.80;3.50;;;;;;;;;;5005985;28;20046;-65
2022/10/02 04:50:46;;;;;;;14.50;3.92;;;;;;;;;;5009840;28;20096;-66
2022/10/02 04:53:40;;;;;;;13.30;3.90;;;;;;;;;;5010028;28;20050;-66
2022/10/02 04:56:06;;;;;;;;;;;;;;;;;;4979945;28;20425;-65
2022/10/02 04:58:45;;;;;;;12.20;4.60;;;;;;;;;;5010873;28;19921;-64
2022/10/02 05:01:15;;;;;;;8.93;4.43;;;;;;;;;;5011154;28;20041;-64
2022/10/02 05:04:00;;;;;;;17.02;4.15;;;;;;;;;;5010279;28;20092;-64
2022/10/02 05:06:32;;;;;;;11.10;4.63;;;;;;;;;;5009679;28;20049;-63
2022/10/02 05:09:31;;;;;;;14.70;4.53;;;;;;;;;;5011663;28;20034;-64
2022/10/02 05:12:23;;;;;;;12.15;4.68;;;;;;;;;;4978954;28;20128;-64
2022/10/02 05:14:50;;;;;;;10.38;4.68;;;;;;;;;;4993794;28;20041;-64
2022/10/02 05:17:32;;;;;;;10.60;5.07;;;;;;;;;;5004313;28;20068;-63
2022/10/02 05:19:58;;;;;;;14.05;5.13;;;;;;;;;;5014689;28;20485;-64
2022/10/02 05:22:37;;;;;;;11.18;4.75;;;;;;;;;;5010525;28;20044;-64
2022/10/02 05:25:14;;;;;;;9.85;4.78;;;;;;;;;;5011278;28;20113;-67
2022/10/02 05:27:40;;;;;;;12.25;4.70;;;;;;;;;;5006117;28;20072;-63
2022/10/02 05:30:14;;;;;;;13.93;4.90;;;;;;;;;;4988649;28;20042;-64
2022/10/02 05:32:51;;;;;;;12.63;5.18;;;;;;;;;;5007788;28;20550;-65
2022/10/02 05:35:37;;;;;;;13.68;5.40;;;;;;;;;;4990331;28;20053;-65
2022/10/02 05:38:04;;;;;;;9.13;4.50;;;;;;;;;;5004832;28;20160;-65
2022/10/02 05:40:32;;;;;;;14.65;5.15;;;;;;;;;;5007788;28;20040;-65
2022/10/02 05:43:03;;;;;;;12.48;5.03;;;;;;;;;;5007787;28;20584;-65
2022/10/02 05:45:48;;;;;;;15.50;5.93;;;;;;;;;;5008527;28;20065;-64
2022/10/02 05:48:24;;;;;;;16.40;6.13;;;;;;;;;;5008520;28;20053;-66
2022/10/02 05:50:52;;;;;;;13.77;5.25;;;;;;;;;;5008438;28;20033;-66
2022/10/02 05:53:39;;;;;;;12.35;6.10;;;;;;;;;;4991327;28;20042;-67
2022/10/02 05:56:09;;;;;;;13.15;5.47;;;;;;;;;;5009207;28;20041;-65
2022/10/02 05:58:38;;;;;;;9.70;5.60;;;;;;;;;;5004104;28;20053;-65
2022/10/02 06:01:09;;;;;;;12.30;5.68;;;;;;;;;;4992585;28;20529;-65
2022/10/02 06:03:39;;;;;;;9.30;5.63;;;;;;;;;;5006408;28;20037;-65
2022/10/02 06:06:16;;;;;;;10.18;5.80;;;;;;;;;;5008685;28;20034;-64
2022/10/02 06:08:47;;;;;;;14.02;5.90;;;;;;;;;;5008537;28;20053;-64
2022/10/02 06:11:35;;;;;;;10.63;5.70;;;;;;;;;;5007919;28;20036;-65
2022/10/02 06:14:09;;;;;;;16.80;6.35;;;;;;;;;;4998423;28;20069;-65
2022/10/02 06:16:57;;;;;;;15.07;6.18;;;;;;;;;;5000797;28;20077;-66
2022/10/02 06:19:24;;;;;;;16.52;6.35;;;;;;;;;;5005923;28;20045;-65
2022/10/02 06:21:53;;;;;;;15.15;5.63;;;;;;;;;;4993104;28;20056;-64
2022/10/02 06:24:28;;;;;;;11.18;6.03;;;;;;;;;;5007198;28;20657;-65
2022/10/02 06:27:02;;;;;;;13.90;5.93;;;;;;;;;;5008827;28;20048;-63
2022/10/02 06:29:33;;;;;;;13.95;6.30;;;;;;;;;;5006718;28;20512;-64
2022/10/02 06:32:02;;;;;;;18.38;6.07;;;;;;;;;;5005698;28;20068;-65
2022/10/02 06:34:29;;;;;;;13.57;6.03;;;;;;;;;;5006972;28;20033;-65
2022/10/02 06:37:04;;;;;;;11.20;5.95;;;;;;;;;;5007224;28;20069;-63
2022/10/02 06:39:39;;;;;;;14.38;5.80;;;;;;;;;;5006394;28;20049;-64
2022/10/02 06:42:24;;;;;;;13.32;6.45;;;;;;;;;;5008532;28;20799;-64
2022/10/02 06:45:09;;;;;;;14.55;5.97;;;;;;;;;;5006798;28;20042;-65
2022/10/02 06:47:57;;;;;;;12.82;6.43;;;;;;;;;;5007755;28;20127;-65
2022/10/02 06:50:42;;;;;;;9.65;5.93;;;;;;;;;;5007143;28;20053;-65
2022/10/02 06:53:40;;;;;;;17.85;6.25;;;;;;;;;;5007596;28;20053;-65
2022/10/02 06:56:25;;;;;;;14.20;6.60;;;;;;;;;;5006791;28;20041;-65
2022/10/02 06:58:54;;;;;;;14.57;6.30;;;;;;;;;;5005750;28;20045;-65
2022/10/02 07:01:39;;;;;;;13.00;6.15;;;;;;;;;;5005634;28;20034;-65
2022/10/02 07:04:12;;;;;;;11.43;6.47;;;;;;;;;;5004508;28;20052;-64
2022/10/02 07:06:50;;;;;;;16.25;6.70;;;;;;;;;;5006100;28;20072;-64
2022/10/02 07:09:36;;;;;;;13.75;6.05;;;;;;;;;;5007115;28;21600;-64
2022/10/02 07:12:16;;;;;;;12.68;6.57;;;;;;;;;;4960714;28;20061;-65
2022/10/02 07:14:43;;;;;;;14.20;6.47;;;;;;;;;;5006603;28;20561;-63
2022/10/02 07:17:28;;;;;;;11.15;6.10;;;;;;;;;;5006132;28;20549;-64
2022/10/02 07:19:54;;;;;;;11.65;6.18;;;;;;;;;;5006614;28;20116;-64
2022/10/02 07:22:21;;;;;;;17.40;7.20;;;;;;;;;;5007196;28;20048;-64
2022/10/02 07:24:47;;;;;;;9.90;6.05;;;;;;;;;;5007034;28;20758;-64
2022/10/02 07:27:14;;;;;;;11.88;6.68;;;;;;;;;;5004707;28;20168;-63
2022/10/02 07:29:47;;;;;;;12.90;6.35;;;;;;;;;;5006181;28;20505;-63
2022/10/02 07:32:13;;;;;;;14.55;6.82;;;;;;;;;;5008085;28;20045;-64
2022/10/02 07:34:46;;;;;;;13.00;6.57;;;;;;;;;;5006471;28;20065;-64
2022/10/02 07:37:31;;;;;;;12.98;6.70;;;;;;;;;;5004717;28;20053;-64
2022/10/02 07:40:08;;;;;;;13.00;7.05;;;;;;;;;;5007161;28;20050;-64
2022/10/02 07:42:41;;;;;;;12.68;6.65;;;;;;;;;;5006501;28;20116;-64
2022/10/02 07:45:28;;;;;;;12.95;7.38;;;;;;;;;;5008179;28;20105;-64
2022/10/02 07:48:03;;;;;;;12.60;7.15;;;;;;;;;;5006665;28;20068;-65
2022/10/02 07:50:33;;;;;;;12.95;7.40;;;;;;;;;;5005411;28;20132;-64
2022/10/02 07:53:18;;;;;;;12.95;6.82;;;;;;;;;;5007458;28;20068;-63
2022/10/02 07:55:45;;;;;;;12.00;7.43;;;;;;;;;;5009334;28;20526;-66
2022/10/02 07:58:22;;;;;;;14.85;7.47;;;;;;;;;;4987819;28;20120;-65
2022/10/02 08:01:09;;;;;;;16.38;8.27;;;;;;;;;;5003486;28;20046;-64
2022/10/02 08:03:39;;;;;;;17.83;7.50;;;;;;;;;;4978845;28;20046;-65
2022/10/02 08:06:06;;;;;;;18.40;7.57;;;;;;;;;;4987563;28;20084;-66
2022/10/02 08:08:42;;;;;;;18.58;8.05;;;;;;;;;;5003185;28;20058;-65
2022/10/02 08:11:29;;;;;;;17.60;8.10;;;;;;;;;;4989146;28;20045;-65
2022/10/02 08:14:06;;;;;;;16.25;7.53;;;;;;;;;;4986836;28;20042;-66
2022/10/02 08:16:36;;;;;;;14.75;7.90;;;;;;;;;;4987138;28;20447;-64
2022/10/02 08:19:07;;;;;;;14.25;7.45;;;;;;;;;;4986477;28;20052;-62
2022/10/02 08:21:38;;;;;;;15.18;7.20;;;;;;;;;;4986968;28;20058;-64
2022/10/02 08:24:09;;;;;;;15.93;8.18;;;;;;;;;;4987426;28;20081;-62
2022/10/02 08:26:41;;;;;;;15.52;7.80;;;;;;;;;;4987505;28;20050;-63
2022/10/02 08:29:20;;;;;;;17.53;7.90;;;;;;;;;;4987944;28;20029;-65
2022/10/02 08:31:46;;;;;;;19.38;8.02;;;;;;;;;;4988271;28;20046;-64
2022/10/02 08:34:17;;;;;;;16.67;7.30;;;;;;;;;;4985497;28;20035;-63
2022/10/02 08:36:47;;;;;;;12.75;6.97;;;;;;;;;;4986048;28;20049;-63
2022/10/02 08:39:24;;;;;;;12.43;6.85;;;;;;;;;;4986776;28;20044;-64
2022/10/02 08:42:02;;;;;;;18.40;7.13;;;;;;;;;;4986643;28;20046;-63
2022/10/02 08:44:32;;;;;;;13.98;6.85;;;;;;;;;;4985543;28;20049;-62
2022/10/02 08:46:59;;;;;;;19.67;7.50;;;;;;;;;;4985997;28;20035;-63
2022/10/02 08:49:43;;;;;;;13.68;6.88;;;;;;;;;;4986436;28;20050;-64
2022/10/02 08:52:16;;;;;;;14.23;7.05;;;;;;;;;;4985732;28;20050;-62
2022/10/02 08:54:45;;;;;;;11.20;7.38;;;;;;;;;;4985192;28;20033;-64
2022/10/02 08:57:27;;;;;;;13.45;7.13;;;;;;;;;;4990470;28;20063;-65
2022/10/02 09:00:00;;;;;;;13.15;6.43;;;;;;;;;;5005830;28;20045;-65
2022/10/02 09:02:29;;;;;;;14.00;6.88;;;;;;;;;;5005079;28;21126;-64
2022/10/02 09:04:59;;;;;;;12.65;6.88;;;;;;;;;;5000116;28;20078;-64
2022/10/02 09:07:45;;;;;;;13.07;7.03;;;;;;;;;;5004854;28;20082;-64
2022/10/02 09:10:32;;;;;;;12.20;6.72;;;;;;;;;;5006019;28;20046;-63
2022/10/02 09:13:17;;;;;;;15.32;7.10;;;;;;;;;;4990437;28;22243;-65
2022/10/02 09:15:51;;;;;;;11.23;7.00;;;;;;;;;;5006433;28;20042;-64
2022/10/02 09:18:17;;;;;;;;;;;;;;;;;;5008696;28;20046;-64
2022/10/02 09:20:51;;;;;;;14.70;6.88;;;;;;;;;;5008269;28;20000;-63
2022/10/02 09:23:42;;;;;;;9.98;6.57;;;;;;;;;;5008211;28;20052;-63
2022/10/02 09:26:17;;;;;;;15.43;7.70;;;;;;;;;;5007622;28;20042;-65
2022/10/02 09:29:02;;;;;;;13.50;6.78;;;;;;;;;;5006211;28;20437;-66
2022/10/02 09:31:39;;;;;;;16.08;7.20;;;;;;;;;;5009090;28;20049;-65
2022/10/02 09:34:05;;;;;;;11.48;6.93;;;;;;;;;;5007524;28;20042;-65
2022/10/02 09:36:50;;;;;;;13.73;6.82;;;;;;;;;;5010506;28;20085;-65
2022/10/02 09:39:41;;;;;;;13.70;7.57;;;;;;;;;;5010443;28;20053;-64
2022/10/02 09:42:24;;;;;;;14.32;7.88;;;;;;;;;;4993659;28;20046;-64
2022/10/02 09:45:02;;;;;;;15.23;7.50;;;;;;;;;;5010547;28;20037;-63
2022/10/02 09:47:52;;;;;;;18.42;7.68;;;;;;;;;;5008955;28;20061;-65
2022/10/02 09:50:34;;;;;;;17.33;8.00;;;;;;;;;;5008824;28;20038;-65
2022/10/02 09:53:20;;;;;;;13.53;8.03;;;;;;;;;;5007362;28;20066;-64
2022/10/02 09:56:24;;;;;;;23.42;8.38;;;;;;;;;;4957986;28;20138;-65
2022/10/02 09:58:50;;;;;;;11.98;6.65;;;;;;;;;;4957062;28;20055;-62
2022/10/02 10:01:35;;;;;;;13.13;7.47;;;;;;;;;;4959281;28;20031;-65
2022/10/02 10:04:20;;;;;;;15.32;7.90;;;;;;;;;;4958423;28;20519;-63
2022/10/02 10:07:05;;;;;;;17.27;7.70;;;;;;;;;;4959246;28;20790;-64
2022/10/02 10:09:47;;;;;;;10.52;7.15;;;;;;;;;;4960451;28;20050;-63
2022/10/02 10:12:36;;;;;;;13.82;6.93;;;;;;;;;;4961370;28;20522;-65
2022/10/02 10:15:05;;;;;;;17.30;6.95;;;;;;;;;;4961125;28;20043;-64
2022/10/02 10:17:54;;;;;;;10.30;6.80;;;;;;;;;;4960393;28;20062;-64
2022/10/02 10:20:39;;;;;;;12.25;6.55;;;;;;;;;;4964156;28;20043;-66
2022/10/02 10:23:21;;;;;;;14.18;6.75;;;;;;;;;;4964175;28;20039;-64
2022/10/02 10:26:07;;;;;;;15.15;7.32;;;;;;;;;;4960225;28;20057;-67
2022/10/02 10:28:39;;;;;;;14.15;7.22;;;;;;;;;;4957923;28;20049;-64
2022/10/02 10:31:06;;;;;;;20.97;6.97;;;;;;;;;;4961256;28;20077;-63
2022/10/02 10:33:44;;;;;;;12.07;7.05;;;;;;;;;;4982461;28;20297;-64
2022/10/02 10:38:31;;;;;;;19.50;7.85;;;;;;;;;;5010923;28;20042;-64
2022/10/02 10:39:16;;;;;;;14.55;6.88;;;;;;;;;;5010075;28;20048;-64
2022/10/02 10:42:05;;;;;;;18.05;7.03;;;;;;;;;;5010106;28;20164;-65
2022/10/02 10:44:31;;;;;;;11.70;6.72;;;;;;;;;;5009669;28;20504;-66
2022/10/02 10:47:01;;;;;;;15.65;7.78;;;;;;;;;;5007945;28;20052;-65
2022/10/02 10:49:37;;;;;;;12.43;7.43;;;;;;;;;;5010556;28;20084;-65
2022/10/02 10:52:12;;;;;;;13.52;7.82;;;;;;;;;;5007311;28;20173;-65
2022/10/02 10:54:54;;;;;;;14.23;7.45;;;;;;;;;;5010142;28;20038;-66
2022/10/02 10:57:33;;;;;;;14.52;6.50;;;;;;;;;;5009428;28;20050;-66
2022/10/02 11:00:03;;;;;;;13.35;6.47;;;;;;;;;;5008630;28;20645;-65
2022/10/02 11:02:39;;;;;;;11.48;7.15;;;;;;;;;;5004781;28;20556;-63
2022/10/02 11:05:23;;;;;;;12.52;6.88;;;;;;;;;;4990985;28;20124;-64
2022/10/02 11:07:56;;;;;;;15.35;7.35;;;;;;;;;;5008857;28;20042;-64
2022/10/02 11:10:29;;;;;;;12.88;7.22;;;;;;;;;;5009723;28;20136;-63
2022/10/02 11:13:04;;;;;;;12.00;6.83;;;;;;;;;;5009705;28;20045;-66
2022/10/02 11:15:49;;;;;;;11.80;6.75;;;;;;;;;;5007085;28;20041;-66
2022/10/02 11:18:34;;;;;;;16.45;7.15;;;;;;;;;;5008874;28;21118;-65
2022/10/02 11:21:19;;;;;;;12.10;6.68;;;;;;;;;;5008203;28;20045;-65
2022/10/02 11:24:04;;;;;;;15.88;7.55;;;;;;;;;;5007239;28;20094;-65
2022/10/02 11:26:38;;;;;;;18.40;6.70;;;;;;;;;;5006909;28;20049;-65
2022/10/02 11:29:11;;;;;;;11.57;6.55;;;;;;;;;;5008072;28;20042;-65
2022/10/02 11:31:53;;;;;;;13.07;6.93;;;;;;;;;;5007552;28;20037;-64
2022/10/02 11:34:34;;;;;;;12.48;6.45;;;;;;;;;;5008243;28;20147;-65
2022/10/02 11:37:15;;;;;;;11.60;6.38;;;;;;;;;;5007477;28;20064;-64
2022/10/02 11:40:12;;;;;;;15.18;7.38;;;;;;;;;;5007304;28;20120;-64
2022/10/02 11:42:48;;;;;;;12.57;6.28;;;;;;;;;;4986993;28;20049;-66
2022/10/02 11:45:35;;;;;;;11.25;6.28;;;;;;;;;;5005695;28;20080;-65
2022/10/02 11:48:20;;;;;;;12.93;6.97;;;;;;;;;;4989267;28;20525;-67
2022/10/02 11:50:50;;;;;;;12.48;7.28;;;;;;;;;;5004991;28;20069;-66
2022/10/02 11:53:23;;;;;;;20.92;7.32;;;;;;;;;;5006154;28;20801;-66
2022/10/02 11:55:49;;;;;;;10.27;6.40;;;;;;;;;;4998139;28;20045;-65
2022/10/02 11:58:28;;;;;;;9.95;6.60;;;;;;;;;;5005904;28;20409;-64
2022/10/02 12:01:13;;;;;;;12.65;6.50;;;;;;;;;;5005167;28;20112;-66
2022/10/02 12:04:02;;;;;;;13.93;6.57;;;;;;;;;;5005297;28;20121;-65
2022/10/02 12:06:41;;;;;;;9.88;6.45;;;;;;;;;;5004425;28;20053;-65
2022/10/02 12:09:08;;;;;;;16.67;6.65;;;;;;;;;;5005444;28;20037;-65
2022/10/02 12:11:34;;;;;;;14.52;7.25;;;;;;;;;;5005794;28;20037;-66
2022/10/02 12:14:09;;;;;;;14.82;7.47;;;;;;;;;;5007212;28;20376;-65
2022/10/02 12:16:38;;;;;;;10.40;6.35;;;;;;;;;;5005989;28;20034;-67
2022/10/02 12:19:25;;;;;;;13.43;7.43;;;;;;;;;;5005724;28;20068;-65
2022/10/02 12:27:45;;;;;;;12.27;6.88;;;;;;;;;;5005498;28;20579;-65
2022/10/02 12:30:16;;;;;;;14.18;7.35;;;;;;;;;;5006097;28;20072;-66
2022/10/02 12:32:48;;;;;;;12.43;6.97;;;;;;;;;;4984973;28;20434;-65
2022/10/02 12:35:36;;;;;;;14.10;7.37;;;;;;;;;;5008716;28;20049;-63
2022/10/02 12:38:15;;;;;;;13.38;7.13;;;;;;;;;;5006087;28;20120;-65
2022/10/02 12:41:01;;;;;;;9.73;6.40;;;;;;;;;;5006180;28;20038;-66
2022/10/02 12:43:49;;;;;;;12.48;6.53;;;;;;;;;;4988127;28;20038;-65
2022/10/02 12:46:19;;;;;;;12.32;6.50;;;;;;;;;;4988404;28;20041;-66
2022/10/02 12:48:54;;;;;;;19.08;7.13;;;;;;;;;;4987937;28;20064;-66
2022/10/02 12:51:33;;;;;;;12.10;6.57;;;;;;;;;;4995693;28;20045;-66
2022/10/02 12:54:21;;;;;;;21.35;6.90;;;;;;;;;;5007945;28;20054;-65
2022/10/02 12:57:03;;;;;;;12.35;6.47;;;;;;;;;;4986019;28;20579;-65
2022/10/02 12:59:40;;;;;;;12.85;6.45;;;;;;;;;;5006824;28;20942;-65
2022/10/02 13:02:17;;;;;;;11.57;6.72;;;;;;;;;;5007184;28;20096;-65
2022/10/02 13:05:02;;;;;;;11.65;6.43;;;;;;;;;;5005553;28;20069;-65
2022/10/02 13:07:29;;;;;;;9.80;6.63;;;;;;;;;;5005504;28;20507;-63
2022/10/02 13:10:02;;;;;;;12.02;6.15;;;;;;;;;;5007561;28;20045;-65
2022/10/02 13:12:55;;;;;;;11.63;6.22;;;;;;;;;;5008235;28;20053;-64
2022/10/02 13:15:22;;;;;;;11.05;6.40;;;;;;;;;;4990015;28;20030;-65
2022/10/02 13:18:07;;;;;;;14.57;6.70;;;;;;;;;;5010795;28;20063;-65
2022/10/02 13:20:44;;;;;;;13.55;6.88;;;;;;;;;;5008814;28;20045;-65
2022/10/02 13:23:30;;;;;;;12.95;6.63;;;;;;;;;;5010559;28;20069;-65
2022/10/02 13:26:11;;;;;;;15.18;7.70;;;;;;;;;;5007818;28;20516;-65
2022/10/02 13:28:45;;;;;;;14.02;6.68;;;;;;;;;;5009608;28;20046;-66
2022/10/02 13:31:18;;;;;;;15.05;6.60;;;;;;;;;;5010565;28;20061;-65
2022/10/02 13:33:54;;;;;;;10.95;6.55;;;;;;;;;;5010576;28;20045;-64
2022/10/02 13:36:43;;;;;;;15.10;6.80;;;;;;;;;;4991675;28;20053;-66
2022/10/02 13:39:18;;;;;;;16.20;6.88;;;;;;;;;;5005429;28;20160;-65
2022/10/02 13:42:17;;;;;;;12.13;6.70;;;;;;;;;;4990385;28;20048;-64
2022/10/02 13:44:52;;;;;;;14.85;6.70;;;;;;;;;;4981211;28;20111;-65
2022/10/02 13:47:30;;;;;;;15.25;6.53;;;;;;;;;;5005854;28;20410;-65
2022/10/02 13:50:17;;;;;;;21.58;7.13;;;;;;;;;;5006937;28;20136;-66
2022/10/02 13:52:56;;;;;;;15.68;7.57;;;;;;;;;;5007387;28;20121;-67
2022/10/02 13:55:24;;;;;;;19.48;7.20;;;;;;;;;;5008714;28;20140;-65
2022/10/02 13:57:51;;;;;;;14.57;6.60;;;;;;;;;;5009385;28;20058;-66
2022/10/02 14:00:24;;;;;;;20.33;6.78;;;;;;;;;;4990835;28;20030;-65
2022/10/02 14:02:50;;;;;;;14.25;6.75;;;;;;;;;;4995722;28;20061;-65
2022/10/02 14:05:36;;;;;;;12.88;7.43;;;;;;;;;;5012905;28;20046;-65
2022/10/02 14:08:21;;;;;;;17.77;7.85;;;;;;;;;;5009032;28;20053;-65
2022/10/02 14:10:52;;;;;;;15.20;7.57;;;;;;;;;;5008057;28;20468;-66
2022/10/02 14:13:22;;;;;;;12.55;7.22;;;;;;;;;;5002548;28;20604;-63
2022/10/02 14:16:08;;;;;;;13.80;7.20;;;;;;;;;;5009512;28;20037;-64
2022/10/02 14:18:49;;;;;;;14.35;7.55;;;;;;;;;;4992173;28;20096;-65
2022/10/02 14:21:22;;;;;;;13.88;7.07;;;;;;;;;;5006854;28;20048;-65
2022/10/02 14:24:01;;;;;;;14.50;6.95;;;;;;;;;;5009233;28;20049;-65
2022/10/02 14:26:44;;;;;;;18.92;7.32;;;;;;;;;;5008117;28;20052;-64
2022/10/02 14:29:20;;;;;;;11.75;7.10;;;;;;;;;;5008472;28;20057;-66
2022/10/02 14:31:56;;;;;;;12.57;6.97;;;;;;;;;;5005565;28;20046;-63
2022/10/02 14:34:25;;;;;;;12.57;7.32;;;;;;;;;;4979918;28;20045;-68
2022/10/02 14:37:18;;;;;;;13.90;7.20;;;;;;;;;;5006454;28;20045;-65
2022/10/02 14:39:44;;;;;;;9.63;6.15;;;;;;;;;;5007742;28;20037;-66
2022/10/02 14:42:12;;;;;;;14.65;6.85;;;;;;;;;;5008261;28;20124;-66
2022/10/02 14:44:45;;;;;;;13.88;6.78;;;;;;;;;;5008601;28;20037;-66
2022/10/02 14:47:30;;;;;;;15.18;6.93;;;;;;;;;;5005290;28;20042;-65
2022/10/02 14:49:57;;;;;;;11.38;7.00;;;;;;;;;;5010719;28;20048;-65
2022/10/02 14:52:42;;;;;;;13.48;7.15;;;;;;;;;;5010405;28;20041;-65
2022/10/02 14:55:27;;;;;;;10.73;6.50;;;;;;;;;;5012304;28;20494;-66
2022/10/02 14:57:59;;;;;;;13.70;6.25;;;;;;;;;;4971649;28;20114;-64
2022/10/02 15:00:29;;;;;;;12.40;7.15;;;;;;;;;;5007945;28;20060;-64
2022/10/02 15:03:14;;;;;;;10.80;6.50;;;;;;;;;;5006407;28;20533;-65
2022/10/02 15:05:40;;;;;;;13.30;6.07;;;;;;;;;;4987398;28;20133;-65
2022/10/02 15:08:14;;;;;;;14.15;6.53;;;;;;;;;;5007768;28;20041;-64
2022/10/02 15:10:41;;;;;;;11.63;6.32;;;;;;;;;;5007884;28;20164;-67
2022/10/02 15:13:27;;;;;;;13.98;6.13;;;;;;;;;;5009191;28;20045;-65
2022/10/02 15:18:59;;;;;;;11.30;6.78;;;;;;;;;;4981911;28;20049;-65
2022/10/02 15:21:35;;;;;;;14.68;6.70;;;;;;;;;;4989211;28;20141;-64
2022/10/02 15:24:13;;;;;;;11.30;6.38;;;;;;;;;;5011252;28;20058;-65
2022/10/02 15:26:53;;;;;;;12.23;5.78;;;;;;;;;;5002719;28;20029;-65
2022/10/02 15:29:49;;;;;;;9.10;4.85;;;;;;;;;;5008632;28;20062;-65
2022/10/02 15:32:17;;;;;;;8.85;5.15;;;;;;;;;;4987017;28;20038;-64
2022/10/02 15:34:57;;;;;;;12.98;4.68;;;;;;;;;;5006908;28;20045;-64